Time;durP1;ratioP1;P1;durP2;ratioP2;P2;SDS_P1;SDS_P2;PMS_P1;PMS_P2;Temp;Humidity;BMP_temperature;BMP_pressure;BME280_temperature;BME280_humidity;BME280_pressure;Samples;Min_cycle;Max_cycle;Signal;HPM_P1;HPM_P2
2022/12/07 00:01:18;;;;;;;5.60;0.30;;;4.60;94.30;;;;;;5093229;28;20400;-88
2022/12/07 00:03:45;;;;;;;8.68;0.60;;;4.60;94.00;;;;;;5109279;28;20764;-87
2022/12/07 00:06:12;;;;;;;6.63;0.43;;;4.60;93.90;;;;;;5109977;28;20400;-90
2022/12/07 00:08:38;;;;;;;7.90;0.85;;;4.70;93.90;;;;;;5093571;28;20407;-88
2022/12/07 00:11:12;;;;;;;6.93;0.40;;;4.80;93.90;;;;;;5092581;28;20411;-89
2022/12/07 00:13:39;;;;;;;7.80;0.70;;;4.80;93.70;;;;;;5110308;28;20408;-88
2022/12/07 00:16:06;;;;;;;7.45;0.60;;;4.80;94.00;;;;;;5092741;28;20473;-88
2022/12/07 00:18:32;;;;;;;8.18;0.40;;;4.80;93.80;;;;;;5093590;28;20396;-88
2022/12/07 00:21:25;;;;;;;6.68;0.38;;;4.80;93.80;;;;;;5092791;28;20863;-88
2022/12/07 00:23:52;;;;;;;5.60;0.60;;;4.80;94.00;;;;;;5091951;28;20545;-88
2022/12/07 00:26:27;;;;;;;9.40;0.80;;;4.70;94.00;;;;;;5093300;28;20867;-88
2022/12/07 00:29:00;;;;;;;8.60;0.70;;;4.70;94.00;;;;;;5108573;28;20401;-88
2022/12/07 00:31:30;;;;;;;5.28;0.30;;;4.70;94.30;;;;;;5091566;28;20950;-88
2022/12/07 00:33:58;;;;;;;10.27;0.60;;;4.70;94.40;;;;;;5091023;28;20435;-87
2022/12/07 00:36:25;;;;;;;5.50;0.25;;;4.80;94.40;;;;;;5093096;28;20448;-88
2022/12/07 00:38:50;;;;;;;7.80;0.70;;;4.70;94.50;;;;;;5109674;28;20396;-88
2022/12/07 00:41:21;;;;;;;7.40;0.40;;;4.60;94.40;;;;;;5092012;28;20951;-89
2022/12/07 00:43:48;;;;;;;6.90;0.40;;;4.60;94.40;;;;;;5093301;28;20428;-88
2022/12/07 00:46:15;;;;;;;10.10;0.60;;;4.50;94.40;;;;;;5109783;28;20396;-88
2022/12/07 00:48:41;;;;;;;8.88;0.60;;;4.50;94.60;;;;;;5109921;28;20415;-89
2022/12/07 00:51:07;;;;;;;10.90;0.80;;;4.50;94.60;;;;;;5109752;28;20412;-88
2022/12/07 00:53:37;;;;;;;8.52;0.52;;;4.40;94.60;;;;;;5092868;28;20407;-88
2022/12/07 00:56:12;;;;;;;7.25;0.40;;;4.40;94.70;;;;;;5092821;28;20412;-88
2022/12/07 00:58:38;;;;;;;8.32;0.50;;;4.40;94.60;;;;;;5107048;28;20416;-89
2022/12/07 01:01:05;;;;;;;8.35;0.60;;;4.40;94.70;;;;;;5090034;28;20420;-88
2022/12/07 01:03:30;;;;;;;15.57;0.80;;;4.40;94.80;;;;;;5105555;28;20424;-89
2022/12/07 01:05:56;;;;;;;10.52;0.80;;;4.50;94.80;;;;;;5106818;28;20788;-89
2022/12/07 01:08:23;;;;;;;12.68;0.95;;;4.50;94.70;;;;;;5089913;28;20409;-89
2022/12/07 01:10:49;;;;;;;9.48;0.65;;;4.50;94.60;;;;;;5106691;28;20439;-90
2022/12/07 01:13:15;;;;;;;7.95;0.73;;;4.50;94.60;;;;;;5089812;28;20440;-87
2022/12/07 01:15:42;;;;;;;11.38;1.17;;;4.70;94.40;;;;;;5089378;28;20396;-88
2022/12/07 01:18:08;;;;;;;7.32;0.55;;;4.70;94.60;;;;;;5089950;28;20478;-88
2022/12/07 01:20:34;;;;;;;9.52;0.70;;;4.60;94.50;;;;;;5089621;28;20499;-90
2022/12/07 01:23:00;;;;;;;8.50;0.40;;;4.60;94.30;;;;;;5106859;28;20420;-88
2022/12/07 01:25:25;;;;;;;9.97;0.80;;;4.60;94.20;;;;;;5106004;28;20415;-89
2022/12/07 01:27:51;;;;;;;7.85;0.30;;;4.70;94.40;;;;;;5089845;28;20890;-88
2022/12/07 01:30:17;;;;;;;8.97;0.30;;;4.60;94.60;;;;;;5106268;28;20412;-88
2022/12/07 01:32:42;;;;;;;10.50;0.40;;;4.60;94.80;;;;;;5088965;28;20427;-88
2022/12/07 01:35:08;;;;;;;7.22;0.50;;;4.50;94.70;;;;;;5106503;28;20939;-90
2022/12/07 01:37:38;;;;;;;11.73;0.50;;;4.50;94.70;;;;;;5105811;28;20964;-89
2022/12/07 01:40:06;;;;;;;8.07;0.40;;;4.40;94.70;;;;;;5089613;28;20412;-89
2022/12/07 01:42:32;;;;;;;9.77;0.47;;;4.40;94.80;;;;;;5087938;28;20432;-89
2022/12/07 01:45:22;;;;;;;11.27;0.60;;;4.40;94.70;;;;;;5106474;28;20435;-89
2022/12/07 01:47:55;;;;;;;9.45;0.68;;;4.40;94.60;;;;;;5088937;28;20444;-89
2022/12/07 01:50:24;;;;;;;12.35;0.40;;;4.30;94.40;;;;;;5089332;28;20431;-88
2022/12/07 01:52:53;;;;;;;7.57;0.50;;;4.40;94.60;;;;;;5106872;28;20483;-89
2022/12/07 01:55:20;;;;;;;7.20;0.30;;;4.20;94.60;;;;;;5088523;28;20828;-89
2022/12/07 01:57:48;;;;;;;11.23;0.77;;;4.10;94.60;;;;;;5105949;28;20450;-89
2022/12/07 02:00:15;;;;;;;5.97;0.40;;;4.10;94.60;;;;;;5088745;28;20397;-88
2022/12/07 02:02:52;;;;;;;8.20;0.50;;;4.20;94.80;;;;;;5105935;28;20842;-89
2022/12/07 02:05:18;;;;;;;9.38;0.57;;;4.10;94.70;;;;;;5105841;28;20419;-90
2022/12/07 02:07:46;;;;;;;9.38;0.30;;;4.00;94.50;;;;;;5088438;28;20396;-89
2022/12/07 02:10:18;;;;;;;9.50;0.63;;;4.00;94.40;;;;;;5106302;28;20400;-88
2022/12/07 02:12:46;;;;;;;8.15;0.47;;;3.90;94.60;;;;;;5104991;28;20431;-88
2022/12/07 02:15:12;;;;;;;11.15;0.98;;;3.80;94.80;;;;;;5088570;28;20480;-88
2022/12/07 02:18:05;;;;;;;8.52;0.45;;;3.70;94.30;;;;;;5105624;28;20483;-88
2022/12/07 02:21:00;;;;;;;9.18;0.50;;;3.70;94.40;;;;;;5051652;28;20898;-88
2022/12/07 02:24:00;;;;;;;7.53;0.30;;;3.50;94.30;;;;;;5088150;28;20514;-90
2022/12/07 02:27:01;;;;;;;9.65;0.60;;;3.50;94.40;;;;;;5087841;28;20454;-88
2022/12/07 02:29:33;;;;;;;8.80;0.40;;;3.40;94.60;;;;;;5088116;28;20900;-89
2022/12/07 02:32:04;;;;;;;11.80;0.73;;;3.40;95.00;;;;;;5105796;28;20857;-88
2022/12/07 02:34:56;;;;;;;9.37;0.50;;;3.50;95.20;;;;;;5104898;28;20420;-90
2022/12/07 02:37:33;;;;;;;11.73;0.70;;;3.50;95.00;;;;;;5088482;28;20755;-89
2022/12/07 02:40:09;;;;;;;14.45;0.90;;;3.40;95.10;;;;;;5105623;28;20816;-88
2022/12/07 02:42:42;;;;;;;9.77;0.60;;;3.50;95.10;;;;;;5087174;28;20405;-89
2022/12/07 02:45:10;;;;;;;8.43;0.68;;;3.80;95.20;;;;;;5088257;28;20760;-89
2022/12/07 02:47:36;;;;;;;8.95;0.70;;;3.50;95.30;;;;;;5104855;28;20405;-91
2022/12/07 02:50:05;;;;;;;11.52;0.63;;;3.60;95.50;;;;;;5088064;28;20404;-88
2022/12/07 02:52:30;;;;;;;10.13;0.85;;;3.60;95.50;;;;;;5087902;28;20424;-88
2022/12/07 02:54:56;;;;;;;9.13;0.70;;;3.80;95.50;;;;;;5087965;28;20432;-87
2022/12/07 02:57:46;;;;;;;9.80;0.68;;;3.60;95.20;;;;;;5087743;28;20412;-88
2022/12/07 03:00:18;;;;;;;12.03;0.50;;;3.60;95.20;;;;;;5087661;28;20825;-89
2022/12/07 03:02:44;;;;;;;10.35;0.55;;;3.60;95.20;;;;;;5087888;28;20790;-88
2022/12/07 03:05:24;;;;;;;12.05;0.63;;;3.70;95.20;;;;;;5087107;28;20420;-88
2022/12/07 03:08:15;;;;;;;8.82;0.90;;;3.90;95.20;;;;;;5104920;28;20466;-88
2022/12/07 03:10:58;;;;;;;8.13;0.60;;;3.80;95.10;;;;;;5088318;28;20481;-89
2022/12/07 03:13:55;;;;;;;10.70;0.77;;;3.90;95.00;;;;;;5087243;28;20404;-89
2022/12/07 03:16:30;;;;;;;12.13;0.90;;;3.90;94.90;;;;;;5087864;28;20413;-91
2022/12/07 03:19:04;;;;;;;8.88;0.65;;;4.10;94.90;;;;;;5088037;28;20404;-89
2022/12/07 03:21:37;;;;;;;12.48;0.68;;;4.00;94.80;;;;;;5102401;28;20962;-89
2022/12/07 03:24:17;;;;;;;7.85;0.43;;;4.00;94.70;;;;;;5085909;28;20454;-89
2022/12/07 03:26:48;;;;;;;13.30;0.70;;;3.90;94.80;;;;;;5085762;28;20404;-88
2022/12/07 03:29:24;;;;;;;13.30;0.70;;;3.90;94.80;;;;;;5086202;28;20461;-88
2022/12/07 03:32:13;;;;;;;10.00;0.50;;;3.90;95.00;;;;;;5086287;28;20489;-88
2022/12/07 03:34:52;;;;;;;9.27;0.60;;;3.90;95.00;;;;;;5086881;28;20482;-88
2022/12/07 03:37:45;;;;;;;8.35;0.35;;;4.00;95.00;;;;;;5087677;28;20950;-89
2022/12/07 03:40:18;;;;;;;8.88;0.47;;;4.00;94.70;;;;;;5087260;28;20487;-89
2022/12/07 03:42:43;;;;;;;11.98;0.70;;;4.10;94.80;;;;;;5086957;28;20428;-90
2022/12/07 03:45:11;;;;;;;12.23;0.93;;;4.10;94.80;;;;;;5087557;28;20419;-89
2022/12/07 03:48:25;;;;;;;10.32;0.85;;;4.20;94.90;;;;;;5103740;28;20418;-88
2022/12/07 03:51:13;;;;;;;8.60;0.90;;;4.20;94.80;;;;;;5087865;28;20650;-89
2022/12/07 03:53:46;;;;;;;11.68;0.70;;;4.20;94.50;;;;;;5087412;28;20440;-88
2022/12/07 03:56:12;;;;;;;11.82;0.60;;;4.20;94.30;;;;;;5086529;28;20407;-89
2022/12/07 03:58:39;;;;;;;10.73;0.87;;;4.40;94.50;;;;;;5087636;28;20411;-89
2022/12/07 04:01:05;;;;;;;7.60;0.50;;;4.40;94.40;;;;;;5086904;28;20920;-89
2022/12/07 04:03:31;;;;;;;10.07;0.60;;;4.40;94.30;;;;;;5087298;28;20432;-89
2022/12/07 04:05:58;;;;;;;10.63;0.60;;;4.50;94.30;;;;;;5086695;28;20400;-89
2022/12/07 04:08:23;;;;;;;12.07;0.60;;;4.50;94.10;;;;;;5087078;28;20404;-89
2022/12/07 04:10:49;;;;;;;12.03;0.60;;;4.40;94.10;;;;;;5087552;28;20416;-89
2022/12/07 04:13:15;;;;;;;11.00;0.50;;;4.40;94.50;;;;;;5086714;28;20416;-89
2022/12/07 04:15:40;;;;;;;8.43;0.63;;;4.40;94.20;;;;;;5087504;28;20411;-89
2022/12/07 04:18:06;;;;;;;9.50;0.50;;;4.40;94.40;;;;;;5103723;28;20405;-89
2022/12/07 04:20:32;;;;;;;11.00;0.60;;;4.20;94.50;;;;;;5104369;28;20410;-89
2022/12/07 04:22:57;;;;;;;9.00;0.40;;;4.10;94.40;;;;;;5086411;28;20451;-89
2022/12/07 04:25:23;;;;;;;8.23;0.70;;;4.30;94.60;;;;;;5087466;28;20400;-88
2022/12/07 04:27:49;;;;;;;8.27;0.57;;;4.00;94.60;;;;;;5086354;28;20408;-89
2022/12/07 04:30:14;;;;;;;8.82;0.40;;;4.00;94.60;;;;;;5103490;28;20488;-88
2022/12/07 04:32:40;;;;;;;8.95;0.52;;;3.80;94.40;;;;;;5086582;28;20538;-89
2022/12/07 04:35:06;;;;;;;10.00;0.60;;;3.80;94.50;;;;;;5088735;28;20903;-89
2022/12/07 04:37:32;;;;;;;12.82;0.80;;;3.70;94.50;;;;;;5090471;28;20400;-89
2022/12/07 04:39:58;;;;;;;11.10;0.52;;;3.60;94.50;;;;;;5107005;28;20668;-88
2022/12/07 04:42:23;;;;;;;8.57;0.50;;;3.60;94.60;;;;;;5090574;28;20393;-89
2022/12/07 04:44:49;;;;;;;8.38;0.55;;;3.50;94.80;;;;;;5090272;28;20440;-90
2022/12/07 04:47:14;;;;;;;10.30;0.50;;;3.50;94.80;;;;;;5090711;28;20408;-88
2022/12/07 04:49:40;;;;;;;9.07;0.50;;;3.50;94.80;;;;;;5090028;28;20488;-90
2022/12/07 04:52:06;;;;;;;11.10;0.47;;;3.40;94.90;;;;;;5107857;28;20475;-89
2022/12/07 04:54:31;;;;;;;9.05;0.45;;;3.40;95.00;;;;;;5090606;28;20419;-89
2022/12/07 04:56:57;;;;;;;9.03;0.57;;;3.30;94.90;;;;;;5089677;28;20407;-89
2022/12/07 04:59:23;;;;;;;11.77;0.70;;;3.30;94.70;;;;;;5090710;28;20405;-89
2022/12/07 05:01:49;;;;;;;10.00;0.70;;;3.20;94.60;;;;;;5106595;28;20410;-90
2022/12/07 05:04:15;;;;;;;10.00;0.50;;;3.20;94.90;;;;;;5090388;28;20786;-88
2022/12/07 05:06:41;;;;;;;8.80;0.50;;;3.40;95.00;;;;;;5090139;28;20436;-88
2022/12/07 05:09:07;;;;;;;12.77;0.60;;;3.10;94.90;;;;;;5090179;28;20447;-88
2022/12/07 05:11:38;;;;;;;10.75;0.80;;;3.10;95.00;;;;;;5107426;28;20461;-88
2022/12/07 05:14:24;;;;;;;11.70;0.75;;;3.10;95.10;;;;;;5092726;28;20414;-89
2022/12/07 05:16:50;;;;;;;8.05;0.50;;;3.10;95.10;;;;;;5068955;28;20414;-89
2022/12/07 05:19:17;;;;;;;11.18;0.70;;;3.00;95.00;;;;;;5069398;28;20410;-89
2022/12/07 05:21:43;;;;;;;9.73;0.70;;;3.00;95.10;;;;;;5069582;28;20398;-88
2022/12/07 05:24:12;;;;;;;11.27;1.05;;;3.10;95.20;;;;;;5086142;28;20434;-90
2022/12/07 05:26:37;;;;;;;12.52;0.60;;;3.10;95.40;;;;;;5086629;28;20436;-89
2022/12/07 05:29:03;;;;;;;13.73;1.03;;;3.20;95.60;;;;;;5086151;28;20410;-89
2022/12/07 05:31:29;;;;;;;10.17;0.70;;;3.30;95.30;;;;;;5069091;28;20938;-89
2022/12/07 05:33:55;;;;;;;10.60;0.90;;;3.40;95.20;;;;;;5087085;28;20394;-92
2022/12/07 05:36:23;;;;;;;10.65;0.90;;;3.50;95.10;;;;;;5069079;28;20525;-90
2022/12/07 05:38:48;;;;;;;12.35;0.93;;;3.60;95.00;;;;;;5069678;28;20414;-89
2022/12/07 05:44:02;;;;;;;11.83;0.80;;;3.70;94.90;;;;;;5084732;28;20437;-89
2022/12/07 05:46:27;;;;;;;9.80;0.50;;;3.70;95.00;;;;;;5069079;28;20406;-88
2022/12/07 05:48:53;;;;;;;10.60;0.68;;;3.70;95.00;;;;;;5068776;28;20822;-88
2022/12/07 05:51:18;;;;;;;11.27;1.20;;;3.60;95.00;;;;;;5068646;28;20497;-88
2022/12/07 05:53:44;;;;;;;10.50;0.67;;;3.60;94.80;;;;;;5067783;28;20410;-89
2022/12/07 05:56:10;;;;;;;10.73;0.70;;;3.80;94.90;;;;;;5069223;28;20938;-89
2022/12/07 06:01:20;;;;;;;12.57;0.90;;;3.40;94.50;;;;;;5085136;28;20623;-88
2022/12/07 06:03:45;;;;;;;12.77;1.10;;;3.30;94.50;;;;;;5069080;28;20467;-89
2022/12/07 06:06:11;;;;;;;11.48;0.85;;;3.20;94.60;;;;;;5067726;28;20398;-89
2022/12/07 06:08:37;;;;;;;13.90;0.83;;;3.20;94.70;;;;;;5068358;28;20409;-88
2022/12/07 06:13:47;;;;;;;11.05;0.85;;;3.30;95.20;;;;;;5084537;28;20402;-89
2022/12/07 06:16:12;;;;;;;9.57;0.80;;;3.30;95.40;;;;;;5068430;28;20410;-89
2022/12/07 06:18:38;;;;;;;12.27;1.10;;;3.40;95.60;;;;;;5067653;28;20409;-89
2022/12/07 06:21:04;;;;;;;12.40;1.20;;;3.30;95.40;;;;;;5068809;28;20927;-90
2022/12/07 06:23:29;;;;;;;13.57;1.10;;;3.40;95.60;;;;;;5084393;28;20433;-89
2022/12/07 06:25:55;;;;;;;10.63;0.90;;;3.40;95.50;;;;;;5068729;28;20406;-89
2022/12/07 06:28:20;;;;;;;13.43;0.93;;;3.40;95.50;;;;;;5067753;28;20409;-89
2022/12/07 06:30:46;;;;;;;9.25;1.02;;;3.30;95.20;;;;;;5068567;28;20478;-90
2022/12/07 06:33:11;;;;;;;11.20;0.80;;;3.30;95.10;;;;;;5067802;28;20418;-89
2022/12/07 06:35:37;;;;;;;10.95;1.10;;;3.20;94.90;;;;;;5068534;28;20402;-90
2022/12/07 06:38:03;;;;;;;7.60;0.70;;;3.10;94.70;;;;;;5085568;28;20421;-88
2022/12/07 06:40:28;;;;;;;13.75;0.80;;;3.00;94.80;;;;;;5067893;28;20540;-88
2022/12/07 06:42:54;;;;;;;12.60;0.87;;;3.00;94.70;;;;;;5068141;28;20437;-89
2022/12/07 06:45:20;;;;;;;14.80;1.30;;;3.00;94.90;;;;;;5084116;28;20414;-90
2022/12/07 06:47:45;;;;;;;11.65;0.90;;;2.90;94.90;;;;;;5084544;28;20402;-89
2022/12/07 06:50:11;;;;;;;12.57;1.23;;;2.90;94.70;;;;;;5067451;28;20463;-90
2022/12/07 06:52:36;;;;;;;9.97;0.87;;;2.90;95.20;;;;;;5068777;28;20406;-89
2022/12/07 06:55:02;;;;;;;13.38;1.10;;;3.00;95.50;;;;;;5067774;28;20485;-89
2022/12/07 06:57:28;;;;;;;11.10;1.30;;;3.20;95.80;;;;;;5066493;28;20414;-89
2022/12/07 06:59:53;;;;;;;9.80;1.00;;;3.20;95.90;;;;;;5079721;28;20408;-89
2022/12/07 07:02:19;;;;;;;13.88;1.00;;;3.30;95.70;;;;;;5087927;28;20404;-88
2022/12/07 07:04:44;;;;;;;14.93;1.17;;;3.30;95.40;;;;;;5105172;28;20953;-89
2022/12/07 07:07:10;;;;;;;11.40;1.00;;;3.30;95.40;;;;;;5104359;28;20656;-89
2022/12/07 07:09:36;;;;;;;15.73;1.45;;;3.30;95.60;;;;;;5104203;28;20899;-89
2022/12/07 07:12:01;;;;;;;15.00;1.45;;;3.30;95.60;;;;;;5087357;28;20416;-89
2022/12/07 07:14:27;;;;;;;12.80;1.10;;;3.20;95.50;;;;;;5088012;28;20981;-88
2022/12/07 07:16:53;;;;;;;12.33;1.10;;;3.20;95.30;;;;;;5104857;28;20401;-90
2022/12/07 07:19:18;;;;;;;14.00;1.40;;;3.20;95.10;;;;;;5070677;28;20500;-90
2022/12/07 07:21:47;;;;;;;10.48;0.88;;;3.10;95.00;;;;;;5088412;28;20416;-89
2022/12/07 07:24:12;;;;;;;12.10;0.95;;;3.20;95.20;;;;;;5087268;28;20514;-90
2022/12/07 07:26:38;;;;;;;8.68;0.80;;;2.90;94.90;;;;;;5105031;28;20475;-89
2022/12/07 07:29:03;;;;;;;14.43;1.40;;;2.90;94.90;;;;;;5104115;28;20403;-89
2022/12/07 07:31:29;;;;;;;11.57;0.90;;;2.80;95.00;;;;;;5087581;28;20411;-89
2022/12/07 07:33:55;;;;;;;10.15;1.00;;;2.80;95.00;;;;;;5104707;28;20891;-89
2022/12/07 07:36:20;;;;;;;11.90;0.97;;;3.00;95.10;;;;;;5087760;28;20400;-89
2022/12/07 07:38:46;;;;;;;14.30;1.43;;;2.70;95.00;;;;;;5087722;28;20396;-90
2022/12/07 07:41:11;;;;;;;17.13;1.23;;;2.70;95.20;;;;;;5087507;28;20408;-89
2022/12/07 07:43:37;;;;;;;12.25;0.98;;;2.70;95.40;;;;;;5088016;28;20474;-90
2022/12/07 07:46:03;;;;;;;12.47;1.20;;;2.70;95.20;;;;;;5104021;28;20404;-90
2022/12/07 07:48:28;;;;;;;13.87;1.17;;;2.70;95.60;;;;;;5088080;28;20432;-90
2022/12/07 07:50:54;;;;;;;10.18;0.88;;;2.90;95.90;;;;;;5087128;28;20489;-88
2022/12/07 07:53:20;;;;;;;13.65;1.15;;;2.90;95.90;;;;;;5087490;28;20457;-88
2022/12/07 07:55:54;;;;;;;11.50;1.33;;;3.00;96.00;;;;;;5087507;28;20401;-89
2022/12/07 07:58:21;;;;;;;9.93;1.50;;;3.10;95.90;;;;;;5103742;28;20416;-89
2022/12/07 08:00:46;;;;;;;15.73;1.65;;;3.20;95.80;;;;;;5087342;28;20396;-89
2022/12/07 08:03:12;;;;;;;10.87;1.30;;;3.20;95.60;;;;;;5087083;28;20971;-89
2022/12/07 08:05:38;;;;;;;15.57;1.13;;;3.10;95.50;;;;;;5104862;28;20458;-88
2022/12/07 08:08:04;;;;;;;14.10;1.30;;;3.10;95.30;;;;;;5088148;28;20400;-89
2022/12/07 08:10:31;;;;;;;14.32;1.10;;;3.00;95.20;;;;;;5091586;28;21327;-89
2022/12/07 08:13:16;;;;;;;12.27;1.40;;;3.00;95.10;;;;;;5091123;28;20439;-89
2022/12/07 08:15:46;;;;;;;13.32;1.10;;;3.00;95.30;;;;;;5091442;28;20800;-89
2022/12/07 08:18:13;;;;;;;12.88;1.30;;;2.90;95.20;;;;;;5091663;28;20930;-87
2022/12/07 08:20:40;;;;;;;15.00;3.20;;;2.90;95.10;;;;;;5090901;28;20388;-89
2022/12/07 08:23:06;;;;;;;16.13;2.63;;;2.90;95.10;;;;;;5090999;28;20617;-88
2022/12/07 08:25:33;;;;;;;11.93;2.53;;;2.90;95.10;;;;;;5090422;28;20412;-90
2022/12/07 08:28:00;;;;;;;13.70;2.20;;;2.90;95.20;;;;;;5091141;28;20406;-90
2022/12/07 08:30:26;;;;;;;13.23;1.50;;;2.90;95.20;;;;;;5090768;28;20400;-88
2022/12/07 08:32:52;;;;;;;11.23;1.40;;;3.00;95.50;;;;;;5090503;28;20415;-90
2022/12/07 08:35:18;;;;;;;12.75;1.65;;;3.30;95.40;;;;;;5091208;28;20902;-90
2022/12/07 08:37:44;;;;;;;13.40;1.40;;;3.30;95.20;;;;;;5090209;28;20471;-90
2022/12/07 08:40:14;;;;;;;11.77;1.30;;;3.30;95.20;;;;;;5108045;28;20396;-89
2022/12/07 08:42:44;;;;;;;11.02;1.08;;;3.40;95.10;;;;;;5090222;28;20408;-89
2022/12/07 08:45:13;;;;;;;14.05;1.75;;;3.50;95.40;;;;;;5103742;28;20435;-89
2022/12/07 08:48:02;;;;;;;11.75;1.02;;;3.70;95.40;;;;;;5107726;28;20411;-88
2022/12/07 08:50:28;;;;;;;9.57;0.82;;;3.80;94.70;;;;;;5089931;28;20775;-89
2022/12/07 08:52:56;;;;;;;8.00;0.85;;;3.90;94.40;;;;;;5090683;28;20430;-88
2022/12/07 08:55:23;;;;;;;7.10;0.93;;;4.00;93.80;;;;;;5089963;28;20396;-90
2022/12/07 08:57:49;;;;;;;7.63;0.50;;;4.20;93.40;;;;;;5090673;28;20444;-89
2022/12/07 09:00:16;;;;;;;7.57;0.50;;;4.20;93.60;;;;;;5106814;28;20457;-88
2022/12/07 09:02:43;;;;;;;8.63;0.60;;;4.20;93.50;;;;;;5090893;28;20404;-90
2022/12/07 09:05:09;;;;;;;8.20;0.75;;;4.20;93.70;;;;;;5107843;28;20397;-91
2022/12/07 09:07:36;;;;;;;8.73;0.70;;;4.20;94.00;;;;;;5090901;28;20415;-89
2022/12/07 09:10:03;;;;;;;8.38;0.50;;;4.20;94.40;;;;;;5090828;28;20454;-90
2022/12/07 09:12:29;;;;;;;7.78;0.45;;;4.20;94.30;;;;;;5090189;28;20436;-92
2022/12/07 09:14:55;;;;;;;7.78;0.90;;;4.20;94.20;;;;;;5091134;28;20921;-92
2022/12/07 09:17:21;;;;;;;8.38;0.57;;;4.20;94.20;;;;;;5090335;28;20440;-90
2022/12/07 09:19:47;;;;;;;8.25;0.70;;;4.30;94.40;;;;;;5106960;28;20443;-90
2022/12/07 09:22:12;;;;;;;10.57;0.73;;;4.50;94.50;;;;;;5090712;28;20415;-90
2022/12/07 09:24:38;;;;;;;9.27;0.50;;;4.30;94.40;;;;;;5090087;28;20637;-90
2022/12/07 09:27:04;;;;;;;9.43;0.73;;;4.40;94.80;;;;;;5090482;28;20419;-90
2022/12/07 09:29:29;;;;;;;11.80;0.90;;;4.20;94.80;;;;;;5089779;28;20440;-90
2022/12/07 09:31:55;;;;;;;9.32;0.70;;;4.20;94.50;;;;;;5090597;28;20407;-91
2022/12/07 09:34:21;;;;;;;11.13;0.60;;;4.20;94.60;;;;;;5089334;28;20500;-90
2022/12/07 09:36:47;;;;;;;7.30;0.60;;;4.30;94.50;;;;;;5090495;28;20497;-90
2022/12/07 09:39:12;;;;;;;6.57;0.43;;;4.50;94.80;;;;;;5089858;28;20500;-90
2022/12/07 09:41:44;;;;;;;9.70;1.00;;;4.90;94.80;;;;;;5089948;28;20402;-91
2022/12/07 09:44:16;;;;;;;6.80;0.55;;;5.30;94.50;;;;;;5090139;28;21062;-89
2022/12/07 09:46:44;;;;;;;6.88;0.70;;;5.60;93.40;;;;;;5089317;28;20408;-90
2022/12/07 09:49:15;;;;;;;8.75;0.70;;;5.70;93.10;;;;;;5090340;28;20404;-91
2022/12/07 09:51:41;;;;;;;7.65;0.75;;;5.70;92.70;;;;;;5089808;28;20446;-91
2022/12/07 09:54:12;;;;;;;9.73;0.70;;;5.50;92.60;;;;;;5090281;28;20392;-90
2022/12/07 09:56:37;;;;;;;9.25;0.50;;;5.20;92.80;;;;;;5089608;28;20400;-90
2022/12/07 09:59:03;;;;;;;9.10;0.90;;;5.20;92.70;;;;;;5089954;28;20405;-90
2022/12/07 10:01:31;;;;;;;9.40;0.90;;;5.20;93.30;;;;;;5089728;28;20399;-91
2022/12/07 10:04:15;;;;;;;9.18;0.60;;;5.20;93.40;;;;;;5089137;28;20491;-91
2022/12/07 10:06:41;;;;;;;7.38;0.50;;;5.20;93.60;;;;;;5071756;28;20441;-91
2022/12/07 10:09:12;;;;;;;9.37;0.90;;;5.20;93.60;;;;;;5068836;28;20402;-91
2022/12/07 10:11:57;;;;;;;11.23;0.70;;;5.30;93.50;;;;;;5070160;28;20496;-89
2022/12/07 10:14:23;;;;;;;11.38;0.93;;;5.00;93.50;;;;;;5085859;28;20446;-91
2022/12/07 10:16:48;;;;;;;7.30;0.60;;;5.40;93.70;;;;;;5091904;28;20429;-90
2022/12/07 10:19:26;;;;;;;9.37;0.70;;;5.40;93.80;;;;;;5089037;28;20438;-88
2022/12/07 10:22:13;;;;;;;9.17;0.90;;;5.30;93.60;;;;;;5087290;28;20965;-90
2022/12/07 10:24:46;;;;;;;9.15;0.85;;;5.60;93.60;;;;;;5088047;28;20779;-90
2022/12/07 10:27:34;;;;;;;12.70;1.00;;;5.60;93.40;;;;;;5087795;28;20400;-90
2022/12/07 10:30:07;;;;;;;8.82;0.95;;;5.70;93.30;;;;;;5087189;28;20495;-89
2022/12/07 10:32:35;;;;;;;7.35;0.60;;;5.90;92.40;;;;;;5087619;28;20800;-90
2022/12/07 10:35:21;;;;;;;7.20;0.50;;;6.00;91.60;;;;;;5086968;28;20403;-89
2022/12/07 10:37:50;;;;;;;6.65;0.40;;;6.20;90.90;;;;;;5088417;28;20440;-91
2022/12/07 10:40:30;;;;;;;4.47;0.20;;;6.40;90.60;;;;;;5087933;28;20455;-90
2022/12/07 10:43:18;;;;;;;4.15;0.22;;;6.50;88.50;;;;;;5087571;28;20763;-90
2022/12/07 10:45:50;;;;;;;2.83;0.25;;;6.60;89.40;;;;;;5087828;28;20922;-92
2022/12/07 10:48:23;;;;;;;4.40;0.20;;;6.70;90.40;;;;;;5103670;28;20409;-92
2022/12/07 10:50:59;;;;;;;2.63;0.40;;;6.30;89.90;;;;;;5087381;28;20446;-91
2022/12/07 10:53:31;;;;;;;2.10;0.15;;;6.20;89.30;;;;;;5087413;28;20411;-89
2022/12/07 10:56:25;;;;;;;2.60;0.20;;;6.20;88.30;;;;;;5086658;28;20769;-90
2022/12/07 10:59:10;;;;;;;1.73;0.20;;;6.20;90.10;;;;;;5087725;28;20436;-89
2022/12/07 11:01:51;;;;;;;1.60;0.10;;;6.10;90.10;;;;;;5103553;28;20405;-89
2022/12/07 11:04:43;;;;;;;2.37;0.10;;;6.10;90.60;;;;;;5087183;28;20432;-91
2022/12/07 11:07:23;;;;;;;3.80;0.20;;;6.10;90.40;;;;;;5067475;28;20406;-90
2022/12/07 11:09:57;;;;;;;2.65;0.20;;;6.10;89.30;;;;;;5081205;28;20463;-90
2022/12/07 11:12:44;;;;;;;2.13;0.20;;;6.10;90.40;;;;;;5087294;28;20806;-90
2022/12/07 11:15:19;;;;;;;3.75;0.40;;;6.20;90.30;;;;;;5086427;28;20473;-90
2022/12/07 11:18:11;;;;;;;3.83;0.30;;;6.60;91.20;;;;;;5080592;28;20801;-89
2022/12/07 11:21:20;;;;;;;3.25;0.30;;;6.90;89.70;;;;;;5077806;28;20413;-90
2022/12/07 11:24:10;;;;;;;4.05;0.30;;;7.00;88.00;;;;;;5025395;28;20519;-90
2022/12/07 11:27:01;;;;;;;4.35;0.73;;;7.10;87.30;;;;;;5079488;28;20411;-91
2022/12/07 11:29:47;;;;;;;3.63;0.40;;;7.10;85.90;;;;;;5067922;28;20418;-90
2022/12/07 11:32:53;;;;;;;4.13;0.30;;;7.20;86.30;;;;;;5087321;28;20442;-90
2022/12/07 11:35:33;;;;;;;4.20;0.40;;;7.10;84.80;;;;;;5095291;28;20421;-90
2022/12/07 11:38:12;;;;;;;6.18;0.40;;;7.00;84.90;;;;;;5067557;28;20414;-89
2022/12/07 11:40:40;;;;;;;4.55;0.30;;;7.00;86.50;;;;;;5067139;28;20409;-89
2022/12/07 11:43:28;;;;;;;6.63;0.40;;;7.00;86.90;;;;;;5083715;28;20433;-89
2022/12/07 11:46:13;;;;;;;3.20;0.20;;;7.00;88.60;;;;;;5066888;28;20533;-90
2022/12/07 11:48:45;;;;;;;3.70;0.20;;;7.10;88.00;;;;;;5077041;28;20888;-88
2022/12/07 11:51:12;;;;;;;5.32;0.20;;;7.20;86.40;;;;;;5101585;28;20410;-89
2022/12/07 11:53:52;;;;;;;4.53;0.28;;;7.30;87.50;;;;;;5083624;28;20418;-90
2022/12/07 11:56:21;;;;;;;5.45;0.40;;;7.30;86.90;;;;;;5067921;28;20438;-90
2022/12/07 11:58:47;;;;;;;3.88;0.30;;;7.30;87.50;;;;;;5067046;28;20398;-88
2022/12/07 12:01:28;;;;;;;5.90;0.30;;;7.40;87.40;;;;;;5084293;28;20510;-88
2022/12/07 12:04:04;;;;;;;5.03;0.20;;;7.30;86.70;;;;;;5081231;28;20428;-89
2022/12/07 12:06:29;;;;;;;6.60;0.47;;;7.30;87.00;;;;;;5066258;28;20410;-91
2022/12/07 12:09:12;;;;;;;4.20;0.20;;;7.20;84.50;;;;;;5085160;28;20922;-90
2022/12/07 12:12:01;;;;;;;7.28;0.30;;;7.00;85.50;;;;;;5084104;28;20446;-90
2022/12/07 12:15:13;;;;;;;6.75;0.30;;;6.50;85.70;;;;;;5066989;28;20410;-89
2022/12/07 12:17:53;;;;;;;4.57;0.30;;;5.80;90.00;;;;;;5048094;28;20468;-92
2022/12/07 12:20:44;;;;;;;4.88;0.20;;;5.30;91.20;;;;;;5067792;28;20414;-91
2022/12/07 12:23:21;;;;;;;5.20;0.30;;;4.90;91.80;;;;;;5066568;28;20445;-91
2022/12/07 12:25:54;;;;;;;3.30;0.20;;;4.50;92.10;;;;;;5067356;28;21028;-92
2022/12/07 12:28:41;;;;;;;5.65;0.20;;;4.40;92.90;;;;;;5066373;28;21063;-92
2022/12/07 12:31:12;;;;;;;5.35;0.40;;;4.40;93.40;;;;;;5066598;28;20413;-92
2022/12/07 12:33:42;;;;;;;4.63;0.20;;;4.40;94.30;;;;;;5083389;28;20450;-90
2022/12/07 12:36:17;;;;;;;5.57;0.22;;;4.50;94.40;;;;;;5066029;28;20410;-93
2022/12/07 12:38:58;;;;;;;8.20;0.30;;;4.70;94.70;;;;;;5067377;28;20417;-92
2022/12/07 12:41:36;;;;;;;7.00;0.40;;;4.80;94.90;;;;;;5066555;28;20416;-91
2022/12/07 12:44:22;;;;;;;5.88;0.40;;;4.90;95.00;;;;;;5084117;28;21158;-92
2022/12/07 12:46:52;;;;;;;5.30;0.30;;;5.10;94.80;;;;;;5065927;28;20493;-92
2022/12/07 12:49:20;;;;;;;5.95;0.20;;;5.10;94.70;;;;;;5083334;28;20408;-89
2022/12/07 12:51:53;;;;;;;4.07;0.20;;;5.10;94.70;;;;;;5084182;28;20489;-91
2022/12/07 12:54:29;;;;;;;4.20;0.20;;;5.20;93.80;;;;;;5083655;28;20410;-92
2022/12/07 12:57:07;;;;;;;3.45;0.20;;;5.20;94.20;;;;;;5071209;28;20409;-91
2022/12/07 12:59:39;;;;;;;4.28;0.20;;;5.20;93.80;;;;;;5087760;28;20410;-90
2022/12/07 13:02:23;;;;;;;3.78;0.20;;;5.20;93.80;;;;;;5070591;28;20398;-90
2022/12/07 13:05:15;;;;;;;4.80;0.30;;;5.20;94.00;;;;;;5087643;28;20426;-90
2022/12/07 13:07:48;;;;;;;3.08;0.20;;;5.20;93.60;;;;;;5087586;28;20534;-91
2022/12/07 13:10:28;;;;;;;6.85;0.50;;;5.20;93.60;;;;;;5087962;28;20800;-91
2022/12/07 13:13:07;;;;;;;5.25;0.50;;;5.20;93.40;;;;;;5087647;28;20421;-91
2022/12/07 13:15:41;;;;;;;4.03;0.20;;;5.10;93.80;;;;;;5086913;28;20414;-93
2022/12/07 13:18:29;;;;;;;5.40;0.30;;;5.10;93.50;;;;;;5087511;28;20772;-92
2022/12/07 13:21:07;;;;;;;5.22;0.40;;;5.20;94.00;;;;;;5087038;28;20413;-90
2022/12/07 13:23:45;;;;;;;4.10;0.40;;;5.10;93.80;;;;;;5087002;28;20426;-91